METAR Data
IDs: Format: Raw Decoded Include TAF

Data at: 0920 UTC 17 Feb 2019

METAR for:KELA (Eagle Lake Arpt, TX, US)
Text:KELA 170915Z AUTO 00000KT 1/4SM FG OVC003 14/14 A2963 RMK AO2 T01350135
Temperature: 13.5°C ( 56°F)
Dewpoint: 13.5°C ( 56°F) [RH = 100%]
Pressure (altimeter):29.63 inches Hg (1003.5 mb)
Winds:calm
Visibility: 0.25 sm ( 0.40 km)
Ceiling:300 feet AGL
Clouds: overcast cloud deck at 300 feet AGL
Weather:FG (fog)
QC Flag:automated observation with no human augmentation

TAF for:KELA (Eagle Lake Arpt, TX, US)
Text:No data found